createdAt,value
2019-03-23T00:01:18.278Z,74.23
2019-03-23T00:03:48.291Z,74.10
2019-03-23T00:06:18.311Z,68.13
2019-03-23T00:08:48.307Z,63.73
2019-03-23T00:11:18.276Z,63.93
2019-03-23T00:13:48.232Z,66.53
2019-03-23T00:16:18.253Z,60.03
2019-03-23T00:18:48.212Z,60.67
2019-03-23T00:21:18.190Z,61.40
2019-03-23T00:23:48.111Z,66.50
2019-03-23T00:26:18.122Z,64.27
2019-03-23T00:28:48.121Z,64.83
2019-03-23T00:31:18.117Z,66.27
2019-03-23T00:33:48.121Z,60.73
2019-03-23T00:36:18.825Z,62.17
2019-03-23T00:38:48.713Z,63.70
2019-03-23T00:41:18.706Z,57.30
2019-03-23T00:43:48.696Z,55.83
2019-03-23T00:46:18.568Z,58.03
2019-03-23T00:48:48.565Z,58.60
2019-03-23T00:51:18.573Z,58.47
2019-03-23T00:53:48.462Z,57.90
2019-03-23T00:56:18.522Z,57.93
2019-03-23T00:58:48.440Z,58.43
2019-03-23T01:01:18.377Z,57.67
2019-03-23T01:03:48.235Z,56.00
2019-03-23T01:06:18.119Z,57.80
2019-03-23T01:08:48.069Z,53.93
2019-03-23T01:11:17.932Z,54.93
2019-03-23T01:13:47.920Z,55.40
2019-03-23T01:16:17.891Z,57.13
2019-03-23T01:18:47.812Z,56.87
2019-03-23T01:21:17.761Z,61.03
2019-03-23T01:23:47.858Z,53.03
2019-03-23T01:26:17.898Z,53.33
2019-03-23T01:28:47.877Z,57.13
2019-03-23T01:31:17.992Z,54.67
2019-03-23T01:33:47.847Z,58.23
2019-03-23T01:36:17.789Z,53.67
2019-03-23T01:38:47.842Z,48.70
2019-03-23T01:41:17.822Z,49.40
2019-03-23T01:43:47.803Z,44.70
2019-03-23T01:46:17.777Z,54.37
2019-03-23T01:48:47.777Z,48.30
2019-03-23T01:51:17.749Z,52.37
2019-03-23T01:53:47.665Z,50.77
2019-03-23T01:56:17.600Z,51.73
2019-03-23T01:58:47.566Z,47.33
2019-03-23T02:01:17.564Z,54.90
2019-03-23T02:03:47.442Z,53.97
2019-03-23T02:06:17.407Z,47.97
2019-03-23T02:08:47.471Z,50.53
2019-03-23T02:11:17.509Z,51.77
2019-03-23T02:13:47.569Z,50.90
2019-03-23T02:16:17.524Z,47.37
2019-03-23T02:18:47.549Z,49.03
2019-03-23T02:21:17.598Z,49.90
2019-03-23T02:23:47.616Z,43.83
2019-03-23T02:26:17.556Z,49.00
2019-03-23T02:28:47.572Z,44.87
2019-03-23T02:31:17.640Z,49.03
2019-03-23T02:33:47.568Z,46.33
2019-03-23T02:36:17.532Z,46.40
2019-03-23T02:38:47.521Z,45.63
2019-03-23T02:41:17.520Z,46.20
2019-03-23T02:43:47.516Z,46.37
2019-03-23T02:46:17.536Z,47.60
2019-03-23T02:48:47.515Z,46.97
2019-03-23T02:51:17.491Z,48.90
2019-03-23T02:53:47.462Z,47.33
2019-03-23T02:56:18.141Z,49.23
2019-03-23T02:58:48.173Z,46.57
2019-03-23T03:01:18.189Z,46.20
2019-03-23T03:03:48.208Z,48.30
2019-03-23T03:06:18.154Z,49.70
2019-03-23T03:08:48.096Z,46.07
2019-03-23T03:11:18.038Z,47.87
2019-03-23T03:13:47.916Z,45.20
2019-03-23T03:16:17.893Z,51.97
2019-03-23T03:18:47.766Z,48.73
2019-03-23T03:21:17.784Z,52.13
2019-03-23T03:23:47.765Z,50.43
2019-03-23T03:26:17.715Z,50.50
2019-03-23T03:28:47.618Z,45.17
2019-03-23T03:31:17.601Z,49.63
2019-03-23T03:33:47.516Z,42.87
2019-03-23T03:36:17.475Z,44.67
2019-03-23T03:38:47.465Z,47.13
2019-03-23T03:41:17.441Z,46.97
2019-03-23T03:43:48.538Z,44.47
2019-03-23T03:46:18.529Z,47.67
2019-03-23T03:48:48.511Z,47.67
2019-03-23T03:51:18.538Z,44.10
2019-03-23T03:53:48.458Z,47.13
2019-03-23T03:56:18.354Z,49.67
2019-03-23T03:58:48.317Z,47.00
2019-03-23T04:01:18.254Z,47.97
2019-03-23T04:03:48.173Z,46.20
2019-03-23T04:06:18.208Z,48.83
2019-03-23T04:08:48.159Z,45.00
2019-03-23T04:11:18.130Z,46.27
2019-03-23T04:13:48.138Z,49.77
2019-03-23T04:16:18.019Z,45.70
2019-03-23T04:18:48.019Z,47.57
2019-03-23T04:21:17.982Z,45.40
2019-03-23T04:23:48.057Z,51.27
2019-03-23T04:26:17.951Z,48.60
2019-03-23T04:28:47.933Z,50.03
2019-03-23T04:31:17.870Z,45.43
2019-03-23T04:33:47.824Z,45.30
2019-03-23T04:36:17.755Z,46.37
2019-03-23T04:38:47.642Z,46.87
2019-03-23T04:41:17.601Z,51.57
2019-03-23T04:43:47.467Z,51.23
2019-03-23T04:46:17.425Z,47.23
2019-03-23T04:48:47.338Z,45.97
2019-03-23T04:51:17.242Z,50.40
2019-03-23T04:53:47.210Z,52.77
2019-03-23T04:56:17.163Z,51.20
2019-03-23T04:58:47.066Z,48.57
2019-03-23T05:01:17.017Z,48.67
2019-03-23T05:03:46.988Z,53.97
2019-03-23T05:06:16.898Z,50.20
2019-03-23T05:08:46.883Z,50.33
2019-03-23T05:11:16.869Z,54.97
2019-03-23T05:13:46.835Z,51.53
2019-03-23T05:16:16.721Z,51.77
2019-03-23T05:18:46.632Z,49.27
2019-03-23T05:21:16.520Z,53.63
2019-03-23T05:23:46.490Z,53.73
2019-03-23T05:26:16.365Z,51.20
2019-03-23T05:28:46.353Z,51.33
2019-03-23T05:31:16.370Z,48.90
2019-03-23T05:33:46.358Z,53.27
2019-03-23T05:36:16.330Z,49.67
2019-03-23T05:38:46.364Z,52.20
2019-03-23T05:41:16.302Z,53.40
2019-03-23T05:43:46.205Z,49.53
2019-03-23T05:46:16.107Z,50.37
2019-03-23T05:48:46.115Z,55.67
2019-03-23T05:51:16.018Z,48.03
2019-03-23T05:53:45.957Z,50.27
2019-03-23T05:56:15.938Z,51.67
2019-03-23T05:58:45.926Z,52.27
2019-03-23T06:01:15.899Z,50.63
2019-03-23T06:03:46.353Z,54.30
2019-03-23T06:06:16.303Z,52.40
2019-03-23T06:08:54.570Z,57.03
2019-03-23T06:11:17.879Z,53.27
2019-03-23T06:13:47.801Z,61.53
2019-03-23T06:16:18.043Z,57.13
2019-03-23T06:18:47.869Z,62.17
2019-03-23T06:21:17.868Z,54.47
2019-03-23T06:23:47.813Z,56.43
2019-03-23T06:26:17.828Z,57.27
2019-03-23T06:28:47.821Z,58.33
2019-03-23T06:31:18.085Z,56.27
2019-03-23T06:33:48.109Z,58.67
2019-03-23T06:36:18.057Z,54.10
2019-03-23T06:38:48.130Z,56.80
2019-03-23T06:41:18.107Z,57.20
2019-03-23T06:43:50.973Z,62.53
2019-03-23T06:46:20.969Z,58.67
2019-03-23T06:48:50.918Z,59.90
2019-03-23T06:51:20.864Z,53.73
2019-03-23T06:53:50.943Z,56.87
2019-03-23T06:56:21.074Z,59.63
2019-03-23T06:58:53.636Z,60.03
2019-03-23T07:01:23.447Z,52.10
2019-03-23T07:03:53.863Z,59.00
2019-03-23T07:06:23.804Z,54.30
2019-03-23T07:08:53.824Z,52.90
2019-03-23T07:11:23.768Z,57.23
2019-03-23T07:13:53.765Z,53.27
2019-03-23T07:16:24.924Z,52.90
2019-03-23T07:18:54.932Z,50.10
2019-03-23T07:21:24.917Z,53.53
2019-03-23T07:23:54.843Z,54.33
2019-03-23T07:26:24.764Z,59.30
2019-03-23T07:28:54.628Z,51.50
2019-03-23T07:31:24.616Z,55.17
2019-03-23T07:33:54.545Z,52.07
2019-03-23T07:36:24.484Z,50.50
2019-03-23T07:38:54.534Z,56.23
2019-03-23T07:41:24.552Z,54.30
2019-03-23T07:43:54.421Z,53.97
2019-03-23T07:46:24.452Z,50.53
2019-03-23T07:48:54.437Z,53.27
2019-03-23T07:51:24.403Z,51.33
2019-03-23T07:53:54.387Z,51.43
2019-03-23T07:56:24.222Z,50.00
2019-03-23T07:58:54.337Z,53.97
2019-03-23T08:01:24.258Z,51.77
2019-03-23T08:03:55.067Z,50.47
2019-03-23T08:06:25.045Z,51.43
2019-03-23T08:08:55.069Z,46.33
2019-03-23T08:11:24.952Z,54.23
2019-03-23T08:13:54.845Z,52.60
2019-03-23T08:16:25.131Z,49.13
2019-03-23T08:18:55.144Z,49.80
2019-03-23T08:21:25.022Z,51.37
2019-03-23T08:23:54.984Z,52.20
2019-03-23T08:26:25.387Z,45.53
2019-03-23T08:28:55.250Z,49.73
2019-03-23T08:31:25.222Z,51.00
2019-03-23T08:33:55.130Z,50.67
2019-03-23T08:36:25.122Z,49.17
2019-03-23T08:38:56.048Z,49.63
2019-03-23T08:41:25.996Z,51.67
2019-03-23T08:43:56.358Z,49.30
2019-03-23T08:46:26.273Z,48.07
2019-03-23T08:48:56.343Z,50.07
2019-03-23T08:51:26.318Z,49.40
2019-03-23T08:53:56.172Z,48.17
2019-03-23T08:56:27.646Z,51.03
2019-03-23T08:58:57.544Z,48.13
2019-03-23T09:01:27.584Z,47.83
2019-03-23T09:03:57.662Z,49.40
2019-03-23T09:06:27.588Z,51.50
2019-03-23T09:08:57.503Z,46.83
2019-03-23T09:11:27.523Z,43.90
2019-03-23T09:13:57.630Z,49.00
2019-03-23T09:16:27.524Z,45.70
2019-03-23T09:18:57.552Z,48.27
2019-03-23T09:21:27.553Z,48.03
2019-03-23T09:23:57.664Z,43.87
2019-03-23T09:26:27.617Z,48.73
2019-03-23T09:28:57.605Z,45.37
2019-03-23T09:31:27.681Z,48.23
2019-03-23T09:33:57.625Z,50.13
2019-03-23T09:36:27.615Z,45.90
2019-03-23T09:38:57.606Z,50.33
2019-03-23T09:41:27.635Z,47.93
2019-03-23T09:43:57.775Z,52.87
2019-03-23T09:46:27.711Z,45.03
2019-03-23T09:48:57.793Z,45.67
2019-03-23T09:51:29.349Z,48.03
2019-03-23T09:53:59.355Z,44.73
2019-03-23T09:56:29.311Z,45.33
2019-03-23T09:58:59.193Z,48.70
2019-03-23T10:01:28.996Z,47.80
2019-03-23T10:03:58.882Z,48.57
2019-03-23T10:06:28.815Z,46.20
2019-03-23T10:08:58.742Z,47.77
2019-03-23T10:11:28.770Z,47.50
2019-03-23T10:13:58.689Z,44.87
2019-03-23T10:16:28.641Z,47.73
2019-03-23T10:18:58.713Z,43.47
2019-03-23T10:21:28.804Z,46.87
2019-03-23T10:23:58.960Z,49.47
2019-03-23T10:26:28.938Z,48.43
2019-03-23T10:28:58.919Z,46.47
2019-03-23T10:31:28.939Z,48.57
2019-03-23T10:33:58.959Z,47.90
2019-03-23T10:36:29.180Z,50.33
2019-03-23T10:38:59.102Z,47.27
2019-03-23T10:41:29.000Z,44.43
2019-03-23T10:43:59.604Z,43.97
2019-03-23T10:46:29.574Z,44.60
2019-03-23T10:48:59.571Z,43.80
2019-03-23T10:51:29.434Z,45.73
2019-03-23T10:53:59.488Z,46.00
2019-03-23T10:56:29.387Z,44.00
2019-03-23T10:58:59.281Z,44.10
2019-03-23T11:01:29.360Z,42.37
2019-03-23T11:03:59.344Z,39.97
2019-03-23T11:06:29.544Z,44.77
2019-03-23T11:08:59.712Z,40.63
2019-03-23T11:11:29.959Z,43.70
2019-03-23T11:13:59.828Z,44.33
2019-03-23T11:16:29.791Z,39.17
2019-03-23T11:18:59.850Z,39.30
2019-03-23T11:21:29.836Z,41.20
2019-03-23T11:23:59.749Z,40.40
2019-03-23T11:26:29.783Z,39.50
2019-03-23T11:28:59.623Z,38.33
2019-03-23T11:31:31.064Z,40.57
2019-03-23T11:34:00.949Z,40.63
2019-03-23T11:36:30.907Z,40.00
2019-03-23T11:39:00.886Z,39.10
2019-03-23T11:41:31.256Z,38.70
2019-03-23T11:44:03.272Z,41.67
2019-03-23T11:46:39.313Z,42.37
2019-03-23T11:49:11.888Z,40.13
2019-03-23T11:51:45.278Z,37.97
2019-03-23T11:54:15.110Z,40.30
2019-03-23T11:56:44.943Z,41.10
2019-03-23T11:59:15.024Z,38.30
2019-03-23T12:01:51.735Z,45.87
2019-03-23T12:04:16.927Z,41.03
2019-03-23T12:06:46.788Z,39.03
2019-03-23T12:09:16.700Z,37.50
2019-03-23T12:11:46.719Z,39.53
2019-03-23T12:14:16.747Z,36.47
2019-03-23T12:16:47.447Z,38.87
2019-03-23T12:19:17.511Z,39.07
2019-03-23T12:21:47.594Z,41.50
2019-03-23T12:24:17.626Z,40.67
2019-03-23T12:26:47.617Z,40.87
2019-03-23T12:29:17.849Z,40.17
2019-03-23T12:31:47.888Z,39.90
2019-03-23T12:34:22.228Z,39.63
2019-03-23T12:36:52.771Z,37.93
2019-03-23T12:39:22.728Z,38.57
2019-03-23T12:41:52.632Z,35.73
2019-03-23T12:44:22.746Z,37.77
2019-03-23T12:46:52.704Z,38.60
2019-03-23T12:49:22.747Z,38.30
2019-03-23T12:51:52.913Z,39.60
2019-03-23T12:54:22.942Z,42.07
2019-03-23T12:56:52.977Z,44.90
2019-03-23T12:59:23.116Z,51.47
2019-03-23T13:01:53.201Z,44.93
2019-03-23T13:04:23.488Z,41.27
2019-03-23T13:06:53.517Z,43.07
2019-03-23T13:09:23.594Z,39.43
2019-03-23T13:11:53.697Z,42.50
2019-03-23T13:14:23.597Z,40.70
2019-03-23T13:16:53.675Z,41.53
2019-03-23T13:19:23.733Z,39.33
2019-03-23T13:21:53.895Z,39.80
2019-03-23T13:24:23.802Z,37.47
2019-03-23T13:26:53.849Z,40.40
2019-03-23T13:29:23.834Z,40.00
2019-03-23T13:31:53.829Z,37.80
2019-03-23T13:34:23.872Z,37.73
2019-03-23T13:36:53.905Z,32.07
2019-03-23T13:39:23.905Z,34.40
2019-03-23T13:41:53.993Z,25.03
2019-03-23T13:44:24.056Z,26.40
2019-03-23T13:46:55.244Z,22.43
2019-03-23T13:49:25.297Z,23.47
2019-03-23T13:51:55.211Z,22.87
2019-03-23T13:54:25.201Z,25.17
2019-03-23T13:56:55.356Z,21.97
2019-03-23T13:59:25.439Z,20.10
2019-03-23T14:01:55.391Z,22.77
2019-03-23T14:04:25.447Z,16.43
2019-03-23T14:06:55.396Z,14.37
2019-03-23T14:09:25.493Z,18.77
2019-03-23T14:11:57.005Z,13.03
2019-03-23T14:14:27.003Z,17.10
2019-03-23T14:16:57.056Z,12.17
2019-03-23T14:19:27.147Z,19.50
2019-03-23T14:21:57.908Z,20.63
2019-03-23T14:24:28.027Z,14.47
2019-03-23T14:26:58.022Z,12.60
2019-03-23T14:29:28.006Z,16.13
2019-03-23T14:31:57.965Z,14.40
2019-03-23T14:34:28.120Z,13.23
2019-03-23T14:36:58.998Z,17.63
2019-03-23T14:39:31.048Z,16.83
2019-03-23T14:42:04.805Z,16.37
2019-03-23T14:44:32.346Z,11.70
2019-03-23T14:47:02.335Z,13.10
2019-03-23T14:49:32.328Z,12.33
2019-03-23T14:52:02.198Z,10.83
2019-03-23T14:54:32.165Z,11.87
2019-03-23T14:57:02.179Z,11.90
2019-03-23T14:59:32.227Z,10.07
2019-03-23T15:02:02.261Z,10.87
2019-03-23T15:04:32.601Z,9.80
2019-03-23T15:07:02.551Z,8.17
2019-03-23T15:09:32.603Z,10.67
2019-03-23T15:12:02.612Z,13.87
2019-03-23T15:14:32.672Z,11.33
2019-03-23T15:17:04.861Z,8.57
2019-03-23T15:19:34.841Z,10.63
2019-03-23T15:22:04.829Z,11.23
2019-03-23T15:24:34.831Z,9.63
2019-03-23T15:27:05.774Z,7.13
2019-03-23T15:29:35.803Z,10.17
2019-03-23T15:32:05.821Z,8.27
2019-03-23T15:34:35.785Z,8.43
2019-03-23T15:37:05.808Z,9.80
2019-03-23T15:39:35.759Z,12.30
2019-03-23T15:42:05.827Z,14.63
2019-03-23T15:44:35.906Z,10.03
2019-03-23T15:47:05.905Z,9.07
2019-03-23T15:49:35.800Z,8.10
2019-03-23T15:52:05.899Z,8.37
2019-03-23T15:54:35.859Z,11.63
2019-03-23T15:57:06.153Z,26.20
2019-03-23T15:59:36.541Z,12.30
2019-03-23T16:02:06.639Z,9.40
2019-03-23T16:04:36.668Z,14.17
2019-03-23T16:07:06.796Z,12.20
2019-03-23T16:09:36.944Z,10.33
2019-03-23T16:12:07.069Z,15.70
2019-03-23T16:14:37.293Z,16.30
2019-03-23T16:17:07.487Z,11.10
2019-03-23T16:19:37.510Z,11.47
2019-03-23T16:22:10.201Z,12.97
2019-03-23T16:24:40.373Z,11.83
2019-03-23T16:27:10.879Z,12.33
2019-03-23T16:29:41.001Z,16.73
2019-03-23T16:32:10.945Z,13.17
2019-03-23T16:34:40.940Z,14.83
2019-03-23T16:37:11.103Z,12.53
2019-03-23T16:39:41.119Z,14.80
2019-03-23T16:42:11.086Z,11.07
2019-03-23T16:44:41.069Z,16.93
2019-03-23T16:47:11.068Z,16.90
2019-03-23T16:49:41.109Z,18.93
2019-03-23T16:52:11.093Z,14.30
2019-03-23T16:54:41.091Z,15.70
2019-03-23T16:57:12.216Z,15.33
2019-03-23T16:59:42.188Z,18.47
2019-03-23T17:02:12.250Z,14.53
2019-03-23T17:04:42.141Z,13.80
2019-03-23T17:07:12.154Z,11.60
2019-03-23T17:09:42.214Z,11.93
2019-03-23T17:12:12.191Z,12.13
2019-03-23T17:14:42.210Z,12.13
2019-03-23T17:17:12.248Z,10.87
2019-03-23T17:19:42.213Z,14.27
2019-03-23T17:22:12.528Z,13.63
2019-03-23T17:24:42.614Z,14.57
2019-03-23T17:27:12.739Z,10.23
2019-03-23T17:29:42.667Z,13.10
2019-03-23T17:32:13.409Z,10.50
2019-03-23T17:34:43.402Z,17.00
2019-03-23T17:37:13.400Z,19.17
2019-03-23T17:39:43.432Z,13.93
2019-03-23T17:42:13.489Z,14.97
2019-03-23T17:44:43.490Z,17.00
2019-03-23T17:47:13.561Z,15.97
2019-03-23T17:49:43.633Z,17.10
2019-03-23T17:52:13.774Z,14.73
2019-03-23T17:54:43.733Z,13.77
2019-03-23T17:57:13.821Z,22.27
2019-03-23T17:59:43.823Z,15.50
2019-03-23T18:02:13.890Z,16.73
2019-03-23T18:04:44.761Z,14.60
2019-03-23T18:07:14.787Z,12.50
2019-03-23T18:09:45.299Z,11.17
2019-03-23T18:12:15.949Z,10.33
2019-03-23T18:14:46.081Z,10.40
2019-03-23T18:17:16.219Z,13.17
2019-03-23T18:19:46.237Z,11.80
2019-03-23T18:22:16.300Z,15.60
2019-03-23T18:24:46.369Z,12.23
2019-03-23T18:27:16.385Z,13.23
2019-03-23T18:29:47.583Z,9.23
2019-03-23T18:32:17.722Z,13.93
2019-03-23T18:34:48.072Z,11.73
2019-03-23T18:37:19.000Z,15.87
2019-03-23T18:39:49.090Z,19.13
2019-03-23T18:42:19.105Z,12.93
2019-03-23T18:44:49.082Z,17.93
2019-03-23T18:47:19.169Z,16.93
2019-03-23T18:49:49.248Z,12.83
2019-03-23T18:52:19.296Z,16.87
2019-03-23T18:54:49.383Z,16.23
2019-03-23T18:57:19.502Z,11.87
2019-03-23T18:59:49.482Z,17.40
2019-03-23T19:02:19.500Z,16.20
2019-03-23T19:04:49.784Z,14.73
2019-03-23T19:07:19.739Z,17.17
2019-03-23T19:09:50.704Z,15.30
2019-03-23T19:12:20.773Z,17.63
2019-03-23T19:14:50.840Z,18.87
2019-03-23T19:17:21.336Z,16.07
2019-03-23T19:19:51.428Z,12.70
2019-03-23T19:22:21.435Z,22.67
2019-03-23T19:24:51.506Z,16.43
2019-03-23T19:27:21.603Z,15.80
2019-03-23T19:29:51.577Z,15.00
2019-03-23T19:32:21.571Z,18.77
2019-03-23T19:34:51.691Z,11.23
2019-03-23T19:37:21.801Z,13.33
2019-03-23T19:39:52.127Z,14.63
2019-03-23T19:42:22.964Z,14.87
2019-03-23T19:44:53.013Z,16.63
2019-03-23T19:47:22.965Z,19.27
2019-03-23T19:49:52.942Z,15.57
2019-03-23T19:52:22.899Z,12.67
2019-03-23T19:54:52.917Z,12.87
2019-03-23T19:57:22.917Z,16.93
2019-03-23T19:59:52.891Z,14.47
2019-03-23T20:02:23.624Z,12.53
2019-03-23T20:04:53.667Z,17.77
2019-03-23T20:07:32.790Z,14.53
2019-03-23T20:09:55.442Z,14.87
2019-03-23T20:12:25.429Z,15.97
2019-03-23T20:14:55.409Z,15.47
2019-03-23T20:17:25.363Z,16.40
2019-03-23T20:19:55.335Z,12.73
2019-03-23T20:22:25.349Z,10.97
2019-03-23T20:24:55.378Z,16.93
2019-03-23T20:27:25.382Z,16.37
2019-03-23T20:29:55.610Z,14.97
2019-03-23T20:32:25.613Z,19.10
2019-03-23T20:34:55.718Z,14.93
2019-03-23T20:37:25.650Z,11.83
2019-03-23T20:39:58.944Z,15.20
2019-03-23T20:42:30.512Z,21.60
2019-03-23T20:45:00.448Z,14.20
2019-03-23T20:47:30.467Z,12.03
2019-03-23T20:50:00.448Z,9.93
2019-03-23T20:52:30.568Z,17.33
2019-03-23T20:55:00.627Z,11.93
2019-03-23T20:57:37.307Z,14.83
2019-03-23T21:00:02.316Z,9.90
2019-03-23T21:02:32.368Z,16.63
2019-03-23T21:05:03.453Z,14.17
2019-03-23T21:07:33.328Z,12.53
2019-03-23T21:10:03.321Z,10.50
2019-03-23T21:12:33.257Z,13.37
2019-03-23T21:15:03.285Z,11.20
2019-03-23T21:17:33.285Z,12.77
2019-03-23T21:20:03.370Z,16.47
2019-03-23T21:22:33.727Z,19.10
2019-03-23T21:25:03.681Z,12.17
2019-03-23T21:27:33.714Z,15.00
2019-03-23T21:30:03.920Z,14.40
2019-03-23T21:32:33.951Z,20.57
2019-03-23T21:35:03.812Z,12.57
2019-03-23T21:37:33.819Z,14.87
2019-03-23T21:40:03.975Z,11.07
2019-03-23T21:42:34.841Z,14.93
2019-03-23T21:45:04.932Z,14.67
2019-03-23T21:47:35.454Z,15.73
2019-03-23T21:50:06.042Z,18.47
2019-03-23T21:52:35.997Z,19.27
2019-03-23T21:55:06.550Z,15.17
2019-03-23T21:57:36.606Z,14.37
2019-03-23T22:00:07.724Z,14.03
2019-03-23T22:02:37.679Z,10.90
2019-03-23T22:05:08.239Z,14.50
2019-03-23T22:07:38.321Z,13.03
2019-03-23T22:10:08.692Z,11.93
2019-03-23T22:12:38.683Z,12.87
2019-03-23T22:15:09.679Z,14.77
2019-03-23T22:17:39.577Z,18.40
2019-03-23T22:20:09.739Z,17.00
2019-03-23T22:22:39.588Z,16.90
2019-03-23T22:25:09.701Z,11.83
2019-03-23T22:27:39.764Z,15.40
2019-03-23T22:30:12.310Z,15.27
2019-03-23T22:32:42.228Z,15.63
2019-03-23T22:35:12.359Z,17.30
2019-03-23T22:37:42.379Z,19.73
2019-03-23T22:40:12.877Z,18.17
2019-03-23T22:42:42.752Z,16.87
2019-03-23T22:45:12.944Z,16.63
2019-03-23T22:47:42.899Z,15.40
2019-03-23T22:50:13.072Z,15.90
2019-03-23T22:52:43.010Z,18.93
2019-03-23T22:55:13.052Z,16.47
2019-03-23T22:57:42.940Z,13.27
2019-03-23T23:00:15.891Z,12.33
2019-03-23T23:02:45.833Z,18.20
2019-03-23T23:05:15.928Z,17.57
2019-03-23T23:07:46.056Z,21.50
2019-03-23T23:10:15.979Z,16.50
2019-03-23T23:12:45.821Z,17.47
2019-03-23T23:15:15.774Z,19.30
2019-03-23T23:17:45.772Z,16.30
2019-03-23T23:20:15.766Z,21.80
2019-03-23T23:22:45.734Z,17.27
2019-03-23T23:25:15.601Z,13.37
2019-03-23T23:27:45.576Z,17.57
2019-03-23T23:30:15.758Z,13.17
2019-03-23T23:32:45.779Z,14.90
2019-03-23T23:35:16.749Z,14.30
2019-03-23T23:37:46.615Z,16.30
2019-03-23T23:40:16.529Z,17.43
2019-03-23T23:42:46.564Z,21.87
2019-03-23T23:45:16.630Z,17.60
2019-03-23T23:47:46.458Z,21.90
2019-03-23T23:50:16.311Z,23.60
2019-03-23T23:52:46.183Z,18.33
2019-03-23T23:55:16.128Z,13.67
2019-03-23T23:57:46.029Z,11.20
